createdAt,value
2023-04-16T00:02:35.997Z,84.40
2023-04-16T00:05:59.325Z,84.40
2023-04-16T00:09:21.778Z,84.20
2023-04-16T00:12:44.186Z,84.30
2023-04-16T00:16:06.984Z,84.30
2023-04-16T00:19:29.322Z,84.30
2023-04-16T00:22:51.570Z,84.10
2023-04-16T00:26:13.786Z,84.00
2023-04-16T00:29:38.637Z,83.80
2023-04-16T00:33:02.961Z,83.80
2023-04-16T00:36:27.111Z,83.70
2023-04-16T00:39:50.243Z,83.80
2023-04-16T00:43:19.804Z,83.60
2023-04-16T00:46:43.160Z,83.50
2023-04-16T00:50:06.151Z,83.60
2023-04-16T00:53:28.935Z,83.40
2023-04-16T00:56:51.780Z,83.40
2023-04-16T01:00:14.302Z,83.40
2023-04-16T01:03:56.025Z,83.40
2023-04-16T01:07:18.373Z,83.20
2023-04-16T01:10:40.843Z,83.30
2023-04-16T01:14:03.145Z,83.20
2023-04-16T01:17:25.493Z,83.20
2023-04-16T01:20:48.789Z,83.00
2023-04-16T01:24:11.129Z,83.10
2023-04-16T01:27:35.057Z,83.00
2023-04-16T01:30:57.331Z,83.00
2023-04-16T01:34:37.580Z,83.80
2023-04-16T01:37:59.886Z,83.00
2023-04-16T01:41:22.550Z,82.90
2023-04-16T01:44:46.960Z,82.90
2023-04-16T01:48:09.605Z,82.80
2023-04-16T01:51:32.309Z,82.80
2023-04-16T01:54:54.603Z,82.70
2023-04-16T01:58:16.987Z,82.70
2023-04-16T02:01:39.697Z,82.70
2023-04-16T02:05:02.359Z,82.70
2023-04-16T02:08:24.632Z,82.60
2023-04-16T02:11:47.187Z,82.70
2023-04-16T02:15:10.113Z,82.70
2023-04-16T02:18:32.560Z,82.70
2023-04-16T02:21:55.407Z,82.70
2023-04-16T02:25:17.759Z,82.80
2023-04-16T02:28:40.087Z,82.70
2023-04-16T02:32:05.063Z,82.70
2023-04-16T02:35:28.581Z,82.50
2023-04-16T02:38:51.006Z,82.30
2023-04-16T02:42:14.323Z,82.50
2023-04-16T02:45:36.640Z,82.50
2023-04-16T02:48:58.854Z,82.70
2023-04-16T02:52:21.060Z,82.50
2023-04-16T02:55:53.638Z,82.50
2023-04-16T02:59:16.019Z,82.50
2023-04-16T03:02:38.436Z,82.50
2023-04-16T03:06:00.893Z,82.50
2023-04-16T03:09:23.159Z,82.30
2023-04-16T03:12:45.610Z,82.30
2023-04-16T03:16:08.146Z,82.30
2023-04-16T03:19:30.702Z,82.10
2023-04-16T03:22:52.938Z,82.10
2023-04-16T03:26:15.308Z,82.00
2023-04-16T03:29:38.770Z,82.00
2023-04-16T03:33:03.284Z,81.90
2023-04-16T03:36:27.104Z,81.80
2023-04-16T03:39:49.330Z,81.70
2023-04-16T03:43:11.533Z,81.80
2023-04-16T03:46:34.663Z,81.70
2023-04-16T03:49:57.092Z,81.60
2023-04-16T03:53:19.507Z,81.70
2023-04-16T03:56:43.353Z,81.60
2023-04-16T04:00:06.361Z,81.60
2023-04-16T04:03:36.681Z,81.50
2023-04-16T04:06:59.333Z,81.50
2023-04-16T04:10:23.033Z,81.50
2023-04-16T04:13:46.183Z,81.50
2023-04-16T04:17:09.373Z,81.50
2023-04-16T04:20:31.625Z,81.40
2023-04-16T04:23:56.139Z,81.40
2023-04-16T04:27:18.836Z,81.20
2023-04-16T04:30:41.322Z,81.20
2023-04-16T04:34:03.708Z,81.30
2023-04-16T04:37:26.385Z,81.30
2023-04-16T04:40:49.098Z,81.40
2023-04-16T04:44:13.205Z,81.50
2023-04-16T04:47:37.049Z,81.40
2023-04-16T04:50:59.522Z,81.50
2023-04-16T04:54:22.050Z,81.40
2023-04-16T04:57:44.333Z,81.40
2023-04-16T05:01:07.024Z,81.30
2023-04-16T05:04:30.807Z,81.30
2023-04-16T05:07:53.088Z,81.10
2023-04-16T05:11:15.905Z,81.10
2023-04-16T05:14:38.100Z,81.00
2023-04-16T05:18:00.520Z,80.90
2023-04-16T05:21:23.696Z,80.80
2023-04-16T05:24:46.014Z,81.00
2023-04-16T05:28:08.329Z,80.80
2023-04-16T05:31:30.643Z,80.80
2023-04-16T05:34:52.929Z,80.90
2023-04-16T05:38:15.430Z,80.80
2023-04-16T05:41:37.660Z,80.70
2023-04-16T05:45:04.308Z,80.60
2023-04-16T05:48:26.521Z,80.60
2023-04-16T05:51:50.718Z,80.60
2023-04-16T05:55:13.283Z,80.50
2023-04-16T05:58:35.579Z,80.50
2023-04-16T06:01:58.155Z,80.50
2023-04-16T06:05:20.603Z,80.60
2023-04-16T06:08:42.837Z,80.20
2023-04-16T06:12:05.487Z,79.90
2023-04-16T06:15:27.690Z,79.70
2023-04-16T06:18:49.941Z,79.70
2023-04-16T06:22:12.363Z,79.80
2023-04-16T06:25:34.665Z,79.10
2023-04-16T06:28:57.008Z,79.10
2023-04-16T06:32:19.394Z,79.00
2023-04-16T06:35:41.719Z,78.90
2023-04-16T06:39:04.236Z,80.10
2023-04-16T06:42:26.661Z,79.40
2023-04-16T06:45:48.990Z,79.60
2023-04-16T06:49:11.639Z,79.90
2023-04-16T06:52:34.103Z,80.10
2023-04-16T06:55:56.333Z,80.00
2023-04-16T06:59:18.701Z,79.90
2023-04-16T07:02:41.189Z,79.90
2023-04-16T07:06:03.666Z,79.90
2023-04-16T07:09:27.206Z,79.70
2023-04-16T07:12:49.467Z,79.50
2023-04-16T07:16:11.766Z,79.30
2023-04-16T07:19:34.139Z,79.10
2023-04-16T07:22:56.641Z,78.90
2023-04-16T07:26:18.926Z,78.70
2023-04-16T07:29:41.170Z,78.80
2023-04-16T07:33:06.582Z,78.90
2023-04-16T07:36:29.177Z,77.90
2023-04-16T07:39:52.551Z,79.60
2023-04-16T07:43:16.441Z,80.30
2023-04-16T07:46:46.886Z,80.80
2023-04-16T07:50:09.905Z,80.60
2023-04-16T07:53:32.155Z,80.60
2023-04-16T07:56:54.363Z,80.50
2023-04-16T08:00:16.738Z,80.80
2023-04-16T08:03:39.177Z,81.70
2023-04-16T08:07:01.561Z,81.10
2023-04-16T08:10:23.751Z,81.50
2023-04-16T08:13:46.076Z,81.50
2023-04-16T08:17:08.311Z,81.70
2023-04-16T08:20:30.593Z,81.70
2023-04-16T08:23:53.093Z,81.50
2023-04-16T08:27:19.746Z,78.90
2023-04-16T08:30:42.607Z,81.30
2023-04-16T08:34:04.910Z,81.40
2023-04-16T08:37:27.418Z,81.00
2023-04-16T08:40:49.854Z,81.00
2023-04-16T08:44:19.702Z,80.50
2023-04-16T08:47:45.531Z,78.30
2023-04-16T08:51:10.989Z,80.00
2023-04-16T08:54:56.323Z,81.40
2023-04-16T08:58:20.995Z,81.30
2023-04-16T09:01:43.561Z,82.90
2023-04-16T09:05:07.714Z,91.50
2023-04-16T09:08:30.476Z,93.50
2023-04-16T09:11:54.038Z,90.60
2023-04-16T09:15:16.306Z,86.00
2023-04-16T09:18:38.802Z,85.30
2023-04-16T09:22:01.223Z,80.90
2023-04-16T09:25:24.852Z,79.80
2023-04-16T09:28:52.684Z,76.70
2023-04-16T09:32:15.049Z,73.10
2023-04-16T09:35:45.986Z,71.20
2023-04-16T09:39:19.497Z,72.00
2023-04-16T09:42:41.833Z,71.60
2023-04-16T09:46:08.037Z,70.20
2023-04-16T09:49:35.551Z,68.80
2023-04-16T09:53:02.564Z,77.30
2023-04-16T09:56:30.351Z,76.10
2023-04-16T09:59:54.143Z,76.40
2023-04-16T10:03:17.746Z,78.50
2023-04-16T10:06:40.088Z,78.40
2023-04-16T10:10:03.850Z,79.20
2023-04-16T10:13:31.125Z,76.70
2023-04-16T10:16:55.772Z,77.90
2023-04-16T10:20:18.879Z,78.50
2023-04-16T10:23:41.957Z,76.90
2023-04-16T10:27:04.269Z,77.00
2023-04-16T10:30:27.793Z,79.10
2023-04-16T10:33:50.454Z,78.10
2023-04-16T10:37:12.955Z,76.60
2023-04-16T10:40:35.465Z,75.10
2023-04-16T10:44:09.977Z,71.50
2023-04-16T10:47:32.393Z,69.80
2023-04-16T10:50:58.360Z,74.90
2023-04-16T10:54:31.333Z,75.10
2023-04-16T10:57:54.105Z,73.30
2023-04-16T11:01:17.101Z,71.30
2023-04-16T11:04:42.699Z,73.10
2023-04-16T11:08:14.273Z,71.40
2023-04-16T11:11:39.653Z,69.70
2023-04-16T11:15:14.613Z,70.30
2023-04-16T11:18:19.887Z,71.20
2023-04-16T11:21:22.471Z,72.00
2023-04-16T11:24:26.252Z,72.40
2023-04-16T11:27:30.708Z,72.00
2023-04-16T11:30:54.277Z,74.90
2023-04-16T11:34:17.602Z,77.80
2023-04-16T11:37:40.107Z,73.40
2023-04-16T11:41:02.779Z,77.80
2023-04-16T11:44:27.392Z,77.90
2023-04-16T11:47:55.484Z,78.50
2023-04-16T11:51:18.778Z,78.80
2023-04-16T11:54:41.100Z,81.30
2023-04-16T11:58:13.387Z,81.00
2023-04-16T12:01:37.416Z,80.60
2023-04-16T12:04:59.694Z,82.20
2023-04-16T12:08:31.051Z,83.60
2023-04-16T12:11:53.801Z,82.60
2023-04-16T12:15:16.211Z,83.00
2023-04-16T12:18:59.133Z,82.60
2023-04-16T12:22:33.618Z,83.20
2023-04-16T12:26:02.337Z,83.80
2023-04-16T12:29:27.605Z,83.60
2023-04-16T12:32:52.398Z,83.20
2023-04-16T12:36:21.251Z,83.20
2023-04-16T12:39:43.448Z,83.70
2023-04-16T12:43:06.185Z,84.20
2023-04-16T12:46:28.532Z,84.40
2023-04-16T12:49:51.030Z,84.20
2023-04-16T12:53:13.473Z,84.40
2023-04-16T12:56:36.422Z,83.90
2023-04-16T12:59:59.288Z,83.90
2023-04-16T13:03:22.027Z,84.30
2023-04-16T13:06:45.011Z,84.40
2023-04-16T13:10:08.609Z,84.40
2023-04-16T13:13:31.106Z,84.30
2023-04-16T13:16:53.392Z,84.60
2023-04-16T13:20:15.793Z,84.50
2023-04-16T13:23:38.134Z,84.80
2023-04-16T13:27:00.558Z,85.20
2023-04-16T13:30:22.741Z,83.70
2023-04-16T13:33:44.966Z,86.40
2023-04-16T13:37:07.255Z,86.70
2023-04-16T13:40:29.679Z,87.60
2023-04-16T13:43:51.996Z,87.60
2023-04-16T13:47:14.359Z,87.90
2023-04-16T13:50:36.768Z,87.70
2023-04-16T13:53:59.025Z,88.70
2023-04-16T13:57:21.981Z,88.40
2023-04-16T14:00:44.306Z,88.00
2023-04-16T14:04:08.207Z,88.50
2023-04-16T14:07:30.584Z,88.30
2023-04-16T14:10:54.467Z,88.50
2023-04-16T14:14:17.888Z,88.50
2023-04-16T14:17:41.381Z,88.80
2023-04-16T14:21:03.865Z,88.60
2023-04-16T14:24:26.179Z,89.40
2023-04-16T14:27:48.515Z,89.30
2023-04-16T14:31:10.837Z,88.90
2023-04-16T14:34:33.100Z,88.80
2023-04-16T14:37:56.132Z,88.50
2023-04-16T14:41:18.476Z,88.50
2023-04-16T14:44:40.757Z,88.10
2023-04-16T14:48:03.140Z,88.50
2023-04-16T14:51:27.408Z,89.60
2023-04-16T14:54:49.755Z,88.10
2023-04-16T14:58:12.044Z,88.10
2023-04-16T15:01:36.004Z,88.00
2023-04-16T15:04:58.429Z,87.90
2023-04-16T15:08:21.379Z,87.80
2023-04-16T15:11:43.594Z,87.80
2023-04-16T15:15:07.294Z,87.50
2023-04-16T15:18:29.705Z,87.20
2023-04-16T15:21:52.046Z,87.30
2023-04-16T15:25:14.520Z,87.00
2023-04-16T15:28:36.776Z,87.00
2023-04-16T15:31:58.999Z,87.00
2023-04-16T15:35:21.277Z,87.00
2023-04-16T15:38:43.630Z,86.90
2023-04-16T15:42:07.436Z,86.80
2023-04-16T15:45:29.911Z,86.70
2023-04-16T15:48:52.214Z,87.10
2023-04-16T15:52:14.645Z,86.20
2023-04-16T15:55:37.014Z,86.10
2023-04-16T15:58:59.261Z,86.40
2023-04-16T16:02:21.771Z,86.90
2023-04-16T16:05:46.284Z,87.30
2023-04-16T16:09:09.062Z,87.50
2023-04-16T16:12:31.672Z,86.60
2023-04-16T16:15:54.126Z,86.40
2023-04-16T16:19:16.700Z,86.60
2023-04-16T16:22:39.328Z,86.10
2023-04-16T16:26:01.811Z,86.20
2023-04-16T16:29:25.415Z,86.10
2023-04-16T16:32:47.724Z,87.10
2023-04-16T16:36:11.134Z,86.10
2023-04-16T16:39:33.420Z,87.00
2023-04-16T16:42:55.847Z,86.80
2023-04-16T16:46:18.140Z,85.40
2023-04-16T16:49:40.487Z,86.00
2023-04-16T16:53:03.316Z,86.40
2023-04-16T16:56:25.546Z,86.40
2023-04-16T16:59:48.542Z,86.60
2023-04-16T17:03:11.179Z,87.00
2023-04-16T17:06:33.732Z,88.00
2023-04-16T17:09:56.109Z,89.40
2023-04-16T17:13:20.468Z,90.10
2023-04-16T17:16:42.855Z,90.30
2023-04-16T17:20:09.325Z,90.50
2023-04-16T17:23:31.526Z,90.40
2023-04-16T17:26:54.213Z,90.70
2023-04-16T17:30:16.977Z,90.50
2023-04-16T17:33:39.281Z,90.60
2023-04-16T17:37:01.683Z,88.50
2023-04-16T17:40:23.972Z,87.80
2023-04-16T17:43:50.619Z,88.70
2023-04-16T17:47:12.995Z,89.40
2023-04-16T17:50:37.565Z,87.80
2023-04-16T17:54:01.339Z,87.90
2023-04-16T17:57:23.756Z,89.60
2023-04-16T18:00:46.159Z,88.40
2023-04-16T18:04:09.475Z,87.80
2023-04-16T18:07:32.473Z,88.70
2023-04-16T18:10:55.561Z,87.60
2023-04-16T18:14:20.080Z,88.30
2023-04-16T18:17:42.566Z,87.80
2023-04-16T18:21:04.826Z,88.70
2023-04-16T18:24:27.095Z,87.60
2023-04-16T18:27:49.335Z,88.80
2023-04-16T18:31:11.607Z,88.80
2023-04-16T18:34:33.962Z,86.70
2023-04-16T18:37:56.332Z,88.00
2023-04-16T18:41:21.800Z,88.90
2023-04-16T18:44:43.985Z,87.80
2023-04-16T18:48:06.441Z,88.60
2023-04-16T18:51:28.807Z,88.50
2023-04-16T18:54:51.068Z,87.90
2023-04-16T18:58:13.266Z,87.80
2023-04-16T19:01:35.649Z,88.00
2023-04-16T19:04:57.975Z,88.00
2023-04-16T19:08:20.604Z,85.40
2023-04-16T19:11:42.990Z,87.50
2023-04-16T19:15:05.919Z,88.50
2023-04-16T19:18:28.188Z,89.00
2023-04-16T19:21:50.358Z,87.90
2023-04-16T19:25:12.726Z,87.20
2023-04-16T19:28:35.038Z,86.90
2023-04-16T19:31:57.360Z,86.60
2023-04-16T19:35:19.673Z,86.50
2023-04-16T19:38:41.963Z,86.40
2023-04-16T19:42:04.556Z,86.40
2023-04-16T19:45:27.679Z,86.40
2023-04-16T19:48:49.918Z,86.40
2023-04-16T19:52:12.376Z,87.10
2023-04-16T19:55:35.002Z,86.20
2023-04-16T19:58:57.419Z,86.20
2023-04-16T20:02:19.645Z,86.40
2023-04-16T20:05:41.900Z,86.30
2023-04-16T20:09:04.910Z,86.10
2023-04-16T20:12:27.148Z,86.20
2023-04-16T20:15:53.895Z,86.10
2023-04-16T20:19:18.679Z,86.00
2023-04-16T20:22:41.303Z,85.90
2023-04-16T20:26:04.499Z,86.00
2023-04-16T20:29:27.035Z,85.90
2023-04-16T20:32:49.411Z,85.90
2023-04-16T20:36:11.925Z,85.90
2023-04-16T20:39:34.672Z,85.80
2023-04-16T20:43:00.393Z,85.90
2023-04-16T20:46:24.374Z,86.00
2023-04-16T20:49:46.753Z,85.90
2023-04-16T20:53:09.180Z,85.80
2023-04-16T20:56:31.440Z,85.80
2023-04-16T20:59:53.831Z,86.10
2023-04-16T21:03:16.263Z,85.80
2023-04-16T21:06:43.126Z,85.70
2023-04-16T21:10:05.791Z,85.80
2023-04-16T21:13:28.077Z,85.70
2023-04-16T21:16:50.486Z,85.80
2023-04-16T21:20:13.699Z,85.90
2023-04-16T21:23:35.982Z,85.70
2023-04-16T21:26:58.221Z,85.60
2023-04-16T21:30:21.135Z,85.50
2023-04-16T21:33:43.464Z,85.70
2023-04-16T21:37:05.713Z,85.70
2023-04-16T21:40:28.101Z,85.90
2023-04-16T21:43:50.404Z,85.40
2023-04-16T21:47:12.921Z,85.60
2023-04-16T21:50:35.198Z,86.00
2023-04-16T21:53:57.754Z,86.20
2023-04-16T21:57:19.938Z,85.70
2023-04-16T22:00:42.194Z,85.90
2023-04-16T22:04:04.976Z,85.70
2023-04-16T22:07:27.216Z,85.80
2023-04-16T22:10:49.414Z,85.90
2023-04-16T22:14:11.736Z,85.70
2023-04-16T22:17:34.787Z,85.70
2023-04-16T22:20:57.168Z,85.80
2023-04-16T22:24:19.776Z,85.70
2023-04-16T22:27:42.027Z,85.70
2023-04-16T22:31:04.461Z,85.70
2023-04-16T22:34:26.702Z,86.50
2023-04-16T22:37:49.000Z,85.60
2023-04-16T22:41:11.245Z,85.50
2023-04-16T22:44:33.421Z,85.70
2023-04-16T22:47:55.808Z,85.70
2023-04-16T22:51:18.198Z,86.00
2023-04-16T22:54:40.447Z,85.70
2023-04-16T22:58:02.671Z,85.70
2023-04-16T23:01:25.374Z,85.50
2023-04-16T23:04:47.952Z,85.50
2023-04-16T23:08:10.590Z,85.50
2023-04-16T23:11:32.866Z,85.50
2023-04-16T23:14:55.131Z,85.70
2023-04-16T23:18:17.481Z,85.40
2023-04-16T23:21:39.764Z,86.30
2023-04-16T23:25:02.135Z,85.40
2023-04-16T23:28:24.574Z,85.40
2023-04-16T23:31:47.010Z,85.30
2023-04-16T23:35:09.692Z,85.20
2023-04-16T23:38:31.964Z,85.20
2023-04-16T23:41:54.225Z,85.20
2023-04-16T23:45:16.509Z,85.20
2023-04-16T23:48:38.797Z,85.10
2023-04-16T23:52:00.983Z,85.00
2023-04-16T23:55:23.379Z,85.10
2023-04-16T23:58:45.571Z,85.00
